Howey In The Hills, Florida
Current Conditions -  °F | °C
As of 1:53 PM on Saturday 25 Oct 2014 (Local Time) from KLEE Reporting Station
Clear Clear  
Wind Chill: 76°   Ceiling: Unl
Heat Index: 76°   Visibility: 10mi
Dew Point: 50°   Wind: 6mph
Humidity: 40%   Direction: 320°NW
Pressure: 29.99"   Gusts: NA
Location:  28.72°N, 81.77°W
Report Text: KLEE 251753Z 32005KT 10SM CLR 24/10 A2999 RMK AO2 SLP153 T02440100 10250 20144 58014
Loading
Personal Weather Stations






























Interactive Weather Map
Tropical Storm Tracking
New forecast layout! Learn more

10-Day Weather Forecast

Advertisements
Track Severe Weather on mobile